Address 0x6ffd136a45c753e993cd5fa5201ded7922bdb236 1

 

Overview

Balance:
12.8246575834130883 MATIC

MATIC Value:
$11.92 (@ $0.93/MATIC)

Token:
 
Txn Hash Method
Block
From
To
Value [Txn Fee]
0xd2a2102bd038b4e5bb4be69f33af392d3f83536b426478d2702e4bb6b32de23f0xc4605394316830892022-08-09 4:37:2514 mins ago0x6ffd136a45c753e993cd5fa5201ded7922bdb236OUT 0x5a98e7ce0f72995fdc13d91255443f374c1299a60 MATIC0.011325939678 30.00129711
0xe66c0367787ad0baba192fae14757b35ced524a5553267aadfaf9156741ca3c2Update Sale316723852022-08-08 21:36:047 hrs 15 mins ago0x6ffd136a45c753e993cd5fa5201ded7922bdb236OUT 0x5a98e7ce0f72995fdc13d91255443f374c1299a60 MATIC0.001488925492 39.321946203
0x26fc90250d4a1da10d66c03ff9164c4bd295dda5a017c046ce4fc543f3ea3eceUpdate Sale316721182022-08-08 21:26:507 hrs 25 mins ago0x6ffd136a45c753e993cd5fa5201ded7922bdb236OUT 0x5a98e7ce0f72995fdc13d91255443f374c1299a60 MATIC0.001887548558 49.849427145
0x2aff9e29f363b5f379edaf8b6d9f8f796ebfa06a397df7a4a767dab947cb49a00x973dcb09316455502022-08-08 4:29:051 day 22 mins ago0x6ffd136a45c753e993cd5fa5201ded7922bdb236OUT 0x5a98e7ce0f72995fdc13d91255443f374c1299a60 MATIC0.011999010004 30.000000012
0xcca524df2bebf274a5814ba07d03813ab3b4c065b429c3a6d4923c1b1eee4ae50x973dcb09316451202022-08-08 4:14:211 day 37 mins ago0x6ffd136a45c753e993cd5fa5201ded7922bdb236OUT 0x5a98e7ce0f72995fdc13d91255443f374c1299a60 MATIC0.012597150005 30.000000013
0x26a5f9f73597946db3d87d1ad7ef256a752f71ee51aff5aa687085801f6dba040x973dcb09316450822022-08-08 4:13:011 day 38 mins ago0x6ffd136a45c753e993cd5fa5201ded7922bdb236OUT 0x5a98e7ce0f72995fdc13d91255443f374c1299a60 MATIC0.012595770006 30.000000016
0xbd09dadebb2944d1f0c9d46b08cb2de76bbfffe2ebc8cef8d8e60a9a87d031c50x973dcb09316450052022-08-08 4:10:231 day 41 mins ago0x6ffd136a45c753e993cd5fa5201ded7922bdb236OUT 0x5a98e7ce0f72995fdc13d91255443f374c1299a60 MATIC0.012596850012 30.00000003
0xe72d67dc0e09977252ec196b99ee503908cee4481c3a1bb178c84e89ebf643070x973dcb09316448742022-08-08 4:05:531 day 46 mins ago0x6ffd136a45c753e993cd5fa5201ded7922bdb236OUT 0x5a98e7ce0f72995fdc13d91255443f374c1299a60 MATIC0.01274883439 30.361958085
0xfa38345ff560bc94eba2c241e7f5535e2c1167890b1fca70c37fa54553a6a0e40x973dcb09316448522022-08-08 4:05:051 day 46 mins ago0x6ffd136a45c753e993cd5fa5201ded7922bdb236OUT 0x5a98e7ce0f72995fdc13d91255443f374c1299a60 MATIC0.012747498481 30.361958126
0xf5e5ceb76604a199028155f85cca21bdebe8c7f9b20fe9156f7a3dad15fff39c0xc4605394316447002022-08-08 3:57:451 day 54 mins ago0x6ffd136a45c753e993cd5fa5201ded7922bdb236OUT 0x5a98e7ce0f72995fdc13d91255443f374c1299a60 MATIC0.010728810005 30.000000016
0x109d4cb4823bfc2b6e72834c1029466936ec0c3864bfd76aa4f3ba06ee8c99e20x973dcb09316444552022-08-08 3:49:191 day 1 hr ago0x6ffd136a45c753e993cd5fa5201ded7922bdb236OUT 0x5a98e7ce0f72995fdc13d91255443f374c1299a60 MATIC0.01259541018 30.000000429
0x1bcdb4c5d4616ae4814a9d52843c8ee3a229c8fd7dc1f8c33963bcf7ad63be5a0x973dcb09316439922022-08-08 3:31:171 day 1 hr ago0x6ffd136a45c753e993cd5fa5201ded7922bdb236OUT 0x5a98e7ce0f72995fdc13d91255443f374c1299a60 MATIC0.012000277155 30.000017889
0x84fbcc0361a679ad5f00967a429ffeef381108d6ba800dc266ee47a21af9c5190xc4605394316438192022-08-08 3:23:111 day 1 hr ago0x6ffd136a45c753e993cd5fa5201ded7922bdb236OUT 0x5a98e7ce0f72995fdc13d91255443f374c1299a60 MATIC0.011326243243 30.000035078
0x9f4f7d24230eb52a0ca3f6b1727a213af6a178af674483ed7d3c20cabc5774efSell NFT With Si...316433772022-08-08 3:07:591 day 1 hr ago0x6ffd136a45c753e993cd5fa5201ded7922bdb236OUT 0x5a98e7ce0f72995fdc13d91255443f374c1299a60 MATIC0.006631671705 30.000233904
0x867de384d6d6cbca639c7482aaa7c352d5d04627d2918d8f3abc8c3ebb4766acPurchase NFT316387002022-08-07 23:35:561 day 5 hrs ago0x6ffd136a45c753e993cd5fa5201ded7922bdb236OUT 0x5a98e7ce0f72995fdc13d91255443f374c1299a60 MATIC0.005395962321 30.012917
0x449a5dd1e90fab26de03f3ea7157e62afb2805f20536b61a40fc20f7c4b26df8Purchase NFT316376292022-08-07 22:44:081 day 6 hrs ago0x6ffd136a45c753e993cd5fa5201ded7922bdb236OUT 0x5a98e7ce0f72995fdc13d91255443f374c1299a60 MATIC0.00541482609 30.11783929
0x56df13e5dea89027ccb18a311cbca106a114552eab6a74e702cc9b2960fe23f50x973dcb09316372932022-08-07 22:21:561 day 6 hrs ago0x6ffd136a45c753e993cd5fa5201ded7922bdb236OUT 0x5a98e7ce0f72995fdc13d91255443f374c1299a60 MATIC0.012631749957 30.086985209
0xda460053a88f2018908e27e21a57ab9a104dafc865cd4c192568aed545513a1dRequest Sale316371732022-08-07 22:17:481 day 6 hrs ago0x6ffd136a45c753e993cd5fa5201ded7922bdb236OUT 0x5a98e7ce0f72995fdc13d91255443f374c1299a60 MATIC0.007325033819 31.681438954
0x09d6c60df472290fce0524d7693b98f61150d47e249bc90941dc8372aa176e000x973dcb09316364782022-08-07 21:43:081 day 7 hrs ago0x6ffd136a45c753e993cd5fa5201ded7922bdb236OUT 0x5a98e7ce0f72995fdc13d91255443f374c1299a60 MATIC0.012595864346 30.00151092
0xbd9539b77e00df5eab8749386595b173edf98d71973910a93bb21d6caf2bf3f1Purchase NFT316357792022-08-07 21:10:381 day 7 hrs ago0x6ffd136a45c753e993cd5fa5201ded7922bdb236OUT 0x5a98e7ce0f72995fdc13d91255443f374c1299a60 MATIC0.009321581769 51.847630371
0x999c1dc89181e63656ce0f0f3c9c8894599fc218b77391bd2124efa96045af4c0x973dcb09316356872022-08-07 21:01:021 day 7 hrs ago0x6ffd136a45c753e993cd5fa5201ded7922bdb236OUT 0x5a98e7ce0f72995fdc13d91255443f374c1299a60 MATIC0.013017613007 31.000000018
0xefe454269f4cd91e497aa3f9275263b2c43c7279b78c5c6715a37f57a530c9980x973dcb09316356562022-08-07 21:00:001 day 7 hrs ago0x6ffd136a45c753e993cd5fa5201ded7922bdb236OUT 0x5a98e7ce0f72995fdc13d91255443f374c1299a60 MATIC0.013015629029 31.000000071
0xa39605be6221d097913115093f0fb7bea05fca351078521cfdfee0474c398f3aTransfer316337932022-08-07 19:42:541 day 9 hrs ago0x075797b6ae1d39bcc6e78a102318529bcf015893 IN 0x6ffd136a45c753e993cd5fa5201ded7922bdb23610 MATIC0.00063 30.000000014
0xe67a23fe084b50a93695016b7938bbf760634108d20d8c9402626e4842943d7bPurchase NFT316336452022-08-07 19:37:461 day 9 hrs ago0x6ffd136a45c753e993cd5fa5201ded7922bdb236OUT 0x5a98e7ce0f72995fdc13d91255443f374c1299a60 MATIC0.005418585899 30.13875175
0x00a22f4e98085f6804d6825e865cab1d1f2dc8ea039a7ba6eccdc35ad680da160x973dcb09316024512022-08-06 22:30:502 days 6 hrs ago0x6ffd136a45c753e993cd5fa5201ded7922bdb236OUT 0x5a98e7ce0f72995fdc13d91255443f374c1299a60 MATIC0.012597750005 30.000000012
[ Download CSV Export 
Latest 7 internal transactions
Parent Txn Hash Block From To Value
0x094900435915676cb6fcdcc12fa81ad39b616380cd972b3da6f3759c882437fc282766752022-05-13 17:59:1887 days 10 hrs ago 0xc590175e458b83680867afd273527ff58f74c02b0x6ffd136a45c753e993cd5fa5201ded7922bdb2363.978447344515592487 MATIC
0x1ad760d0c17f0bfa2eab90392766cc596ba248b581f7b7f3c73ae0447a549d09269375682022-04-09 17:38:35121 days 11 hrs ago 0xc590175e458b83680867afd273527ff58f74c02b0x6ffd136a45c753e993cd5fa5201ded7922bdb2360.574951306820401584 MATIC
0xdf9128aa17ac1500e602bdf26be09c8f4e7310ec10cb62de7b96113c3dcc0566254595662022-03-01 13:52:09160 days 14 hrs ago 0x2334bc478c60bee7674529580659cd6c115cbcbc0x6ffd136a45c753e993cd5fa5201ded7922bdb23610 MATIC
0x3fa3fff14e24fe1a33f7e2bd06de630fd0e8289c2db5f843957dbcba62f3c937251140372022-02-19 12:13:55170 days 16 hrs ago 0x2334bc478c60bee7674529580659cd6c115cbcbc0x6ffd136a45c753e993cd5fa5201ded7922bdb2365 MATIC
0xe6b5b2edc46aa6fad7109a7bc743e43f14be434d657935e3eb538eb299343e11250174992022-02-16 17:38:19173 days 11 hrs ago Multisender.app0x6ffd136a45c753e993cd5fa5201ded7922bdb23695 MATIC
0xa77e5af380ed79f5ccef27b328ea460254dbdf46fd43b250e8052bb0440eccec229978372021-12-26 20:34:49225 days 8 hrs ago 0xc590175e458b83680867afd273527ff58f74c02b0x6ffd136a45c753e993cd5fa5201ded7922bdb2365.519563984855294189 MATIC
0xa1491e0e6ce818d8363d5da96476dbd01134c44a1720fdcfdf5cb98cc5f7d202217206572021-11-23 21:19:58258 days 7 hrs ago 0x7d1288e5dbc91b9d2e7be736cc789114e8d58f690x6ffd136a45c753e993cd5fa5201ded7922bdb2360.1 MATIC
[ Download CSV Export 
Loading

Contract Name:
0 MATIC

Compiler Version
0

Optimization Enabled:
0 MATIC

Other Settings:
-NA-
Block Transaction Gas Used Reward
Age Block Fee Address BC Fee Address Voting Power Jailed Incoming
Block Uncle Number Difficulty Gas Used Reward
Loading
Loading
Make sure to use the "Vote Down" button for any spammy posts, and the "Vote Up" for interesting conversations.